Flight Track Log - Related Links

Times and Time Zones

All times are in EDT time to prevent confusion due to time zone crossing. See the SWA1628 flight status page for this flight to view local times or setup timezone preferences in your user account.

Time Position Orientation Groundspeed Altitude Reporting Facility
EDT Latitude Longitude Course Direction KTS MPH feet Rate Location/Type
Tue 11:56:32 AM 33.6097 -84.5303 244° Southwest 328 377 4,000  Level Atlanta Center
Tue 11:57:32 AM 33.5697 -84.5872 230° Southwest 230 265 6,700 2,750 Climbing Atlanta Center
Tue 11:58:32 AM 33.4944 -84.5844 178° South 280 322 9,500 2,500 Climbing Atlanta Center
Tue 11:59:32 AM 33.4531 -84.5019 121° Southeast 336 387 11,700 2,400 Climbing Atlanta Center
Tue 12:00:32 PM 33.4556 -84.3775 89° East 345 397 14,300 2,650 Climbing Atlanta Center
Tue 12:01:32 PM 33.4664 -84.2431 84° East 379 436 17,000 2,450 Climbing Atlanta Center
Tue 12:02:32 PM 33.5186 -84.1261 62° Northeast 387 445 19,200 2,250 Climbing Atlanta Center
Tue 12:03:32 PM 33.5708 -84.0014 63° Northeast 403 464 21,500 1,950 Climbing Atlanta Center
Tue 12:04:32 PM 33.6125 -83.8642 70° East 420 483 23,100 1,750 Climbing Atlanta Center
Tue 12:05:32 PM 33.6414 -83.7219 76° East 430 495 25,000 1,750 Climbing Atlanta Center
Tue 12:06:32 PM 33.6828 -83.5794 71° East 441 507 26,600 1,450 Climbing Atlanta Center
Tue 12:07:32 PM 33.7386 -83.4417 64° Northeast 450 518 27,900 1,250 Climbing Atlanta Center
Tue 12:08:32 PM 33.7961 -83.2989 64° Northeast 457 526 29,100 1,350 Climbing Atlanta Center
Tue 12:09:32 PM 33.8597 -83.1433 64° Northeast 468 539 30,600 1,750 Climbing Atlanta Center
Tue 12:10:32 PM 33.9150 -83.0000 65° Northeast 468 539 32,600 1,900 Climbing Atlanta Center
Tue 12:11:32 PM 33.9722 -82.8639 63° Northeast 449 517 34,400 1,500 Climbing Atlanta Center
Tue 12:12:32 PM 34.0253 -82.7278 65° Northeast 444 511 35,600 1,150 Climbing Atlanta Center
Tue 12:13:32 PM 34.0758 -82.5942 65° Northeast 444 511 36,700 700 Climbing Atlanta Center
Tue 12:14:32 PM 34.1267 -82.4753 63° Northeast 444 511 37,000 150 Climbing Atlanta Center
Tue 12:15:32 PM 34.1811 -82.3389 64° Northeast 444 511 37,000  Level Atlanta Center
Tue 12:16:32 PM 34.2314 -82.2072 65° Northeast 438 504 37,000  Level Atlanta Center
Tue 12:17:32 PM 34.2919 -82.0775 61° Northeast 438 504 37,000  Level Atlanta Center
Tue 12:18:32 PM 34.3547 -81.9503 59° Northeast 438 504 37,000  Level Atlanta Center
Tue 12:19:32 PM 34.4192 -81.8228 58° Northeast 438 504 37,000  Level Atlanta Center
Tue 12:20:32 PM 34.4814 -81.6953 59° Northeast 438 504 37,000  Level Atlanta Center
Tue 12:21:32 PM 34.5436 -81.5650 60° Northeast 438 504 37,000  Level Atlanta Center
Tue 12:22:32 PM 34.6078 -81.4394 58° Northeast 438 504 37,000  Level Atlanta Center
Tue 12:23:32 PM 34.6797 -81.2956 59° Northeast 438 504 37,000  Level Atlanta Center
Tue 12:24:32 PM 34.7417 -81.1697 59° Northeast 438 504 37,000  Level Atlanta Center
Tue 12:25:32 PM 34.8092 -81.0308 59° Northeast 448 516 37,000  Level Atlanta Center
Tue 12:26:32 PM 34.8767 -80.8892 60° Northeast 456 525 37,000  Level Atlanta Center
Tue 12:27:32 PM 34.9400 -80.7575 60° Northeast 463 533 37,000  Level Atlanta Center
Tue 12:28:32 PM 35.0072 -80.6181 59° Northeast 469 540 37,000  Level Atlanta Center
Tue 12:30:12 PM 35.1078 -80.4058 60° Northeast 454 522 37,000  Level Washington Center
Tue 12:31:13 PM 35.1781 -80.2600 59° Northeast 464 534 37,000  Level Washington Center
Tue 12:32:11 PM 35.2439 -80.1214 60° Northeast 476 548 37,000  Level Washington Center
Tue 12:33:11 PM 35.3208 -79.9653 59° Northeast 476 548 37,000  Level Washington Center
Tue 12:34:12 PM 35.3906 -79.8214 59° Northeast 476 548 37,000  Level Washington Center
Tue 12:35:13 PM 35.4581 -79.6797 60° Northeast 476 548 37,000 -303 Level Washington Center
Tue 12:36:11 PM 35.5111 -79.5292 67° East 476 548 36,400 -807 Descending Washington Center
Tue 12:37:12 PM 35.5539 -79.3706 72° East 476 548 35,400 -934 Descending Washington Center
Tue 12:38:13 PM 35.5894 -79.2342 72° East 476 548 34,500 -893 Descending Washington Center
Tue 12:39:13 PM 35.6294 -79.0803 72° East 470 541 33,600 -915 Descending Washington Center
Tue 12:40:11 PM 35.6714 -78.9261 71° East 470 541 32,700 -908 Descending Washington Center
Tue 12:41:12 PM 35.7133 -78.7667 72° East 470 541 31,800 -934 Descending Washington Center
Tue 12:42:13 PM 35.7531 -78.6069 73° East 475 547 30,800 -1,000 Descending Washington Center
Tue 12:43:12 PM 35.7925 -78.4472 73° East 475 547 29,800 -915 Descending Washington Center
Tue 12:44:11 PM 35.8314 -78.2950 72° East 470 541 29,000 -793 Descending Washington Center
Tue 12:45:13 PM 35.8703 -78.1400 73° East 464 534 28,200 -885 Descending Washington Center
Tue 12:46:13 PM 35.9089 -77.9847 73° East 464 534 27,200 -1,068 Descending Washington Center
Tue 12:47:11 PM 35.9472 -77.8319 73° East 464 534 26,100 -1,513 Descending Washington Center
Tue 12:48:12 PM 35.9897 -77.6792 71° East 464 534 24,200 -2,164 Descending Washington Center
Tue 12:49:13 PM 36.0544 -77.5472 59° Northeast 453 521 21,700 -1,574 Descending Washington Center
Tue 12:50:14 PM 36.1150 -77.4175 60° Northeast 441 507 21,000 -508 Descending Washington Center
Tue 12:51:11 PM 36.1711 -77.2953 60° Northeast 430 495 20,700 -356 Descending Washington Center
Tue 12:52:12 PM 36.2292 -77.1731 59° Northeast 409 471 20,300 -638 Descending Washington Center
Tue 12:52:45 PM 36.2719 -77.0914 57° Northeast 424 488 19,700 -2,040 Descending Washington Center
Tue 12:53:52 PM 36.3319 -76.9533 62° Northeast 438 504 16,900 -2,410 Descending Washington Center
Tue 12:54:47 PM 36.3936 -76.8461 54° Northeast 413 475 14,800 -2,288 Descending Washington Center
Tue 12:55:50 PM 36.4719 -76.7414 47° Northeast 391 450 12,400 -1,839 Descending Washington Center
Tue 12:56:51 PM 36.5250 -76.6233 61° Northeast 368 423 11,000 -1,261 Descending Washington Center
Tue 12:57:49 PM 36.5675 -76.5231 62° Northeast 319 367 9,900 -1,240 Descending Washington Center
Tue 12:58:52 PM 36.6122 -76.4278 60° Northeast 316 364 8,500 -1,412 Descending Washington Center
Tue 01:00:05 PM 36.6794 -76.3325 49° Northeast 298 343 6,700 -1,489 Descending Washington Center
Tue 01:01:13 PM 36.7489 -76.2556 42° Northeast 290 334 5,000 -908 Descending Washington Center
Tue 01:02:04 PM 36.8056 -76.1989 39° Northeast 295 339 4,900 -118 Descending Washington Center

Login

Don't have an account? Register now (free) for customized features, flight alerts, and more!